Kilfoil, Nebraska
Current Conditions -  °F | °C
As of 11:53 PM on Thursday 30 Oct 2014 (Local Time) from KBBW Reporting Station
Clear Clear  
Wind Chill: 28°   Ceiling: Unl
Heat Index: 36°   Visibility: 10mi
Dew Point: 31°   Wind: 12mph
Humidity: 82%   Direction: 10°N
Pressure: 30.44"   Gusts: NA
Location:  41.3933°N, 99.8458°W
Report Text: KBBW 310453Z AUTO 01010KT 10SM CLR 02/M01 A3044 RMK AO2 SLP312 T00221006
Loading
Personal Weather Stations






























Interactive Weather Map
Tropical Storm Tracking
New forecast layout! Learn more

10-Day Weather Forecast

Advertisements
Track Severe Weather on mobile